createdAt,value
2023-05-21T00:00:40.589Z,0.73
2023-05-21T00:03:13.794Z,0.30
2023-05-21T00:05:41.870Z,0.50
2023-05-21T00:08:09.576Z,0.73
2023-05-21T00:10:39.793Z,0.30
2023-05-21T00:13:09.062Z,0.50
2023-05-21T00:15:37.115Z,0.50
2023-05-21T00:18:05.125Z,0.60
2023-05-21T00:20:33.268Z,0.28
2023-05-21T00:23:02.784Z,0.63
2023-05-21T00:25:30.575Z,0.40
2023-05-21T00:27:59.659Z,0.57
2023-05-21T00:30:27.431Z,0.60
2023-05-21T00:32:55.204Z,0.68
2023-05-21T00:35:22.924Z,0.40
2023-05-21T00:37:52.094Z,0.30
2023-05-21T00:40:19.912Z,0.57
2023-05-21T00:42:48.083Z,0.75
2023-05-21T00:45:17.221Z,0.40
2023-05-21T00:47:45.242Z,0.43
2023-05-21T00:50:14.943Z,0.57
2023-05-21T00:52:45.666Z,0.40
2023-05-21T00:55:13.728Z,0.40
2023-05-21T00:57:42.516Z,0.35
2023-05-21T01:00:10.944Z,0.32
2023-05-21T01:02:40.321Z,0.57
2023-05-21T01:05:08.281Z,0.30
2023-05-21T01:07:37.088Z,0.30
2023-05-21T01:10:05.144Z,0.20
2023-05-21T01:12:33.453Z,0.82
2023-05-21T01:15:01.925Z,0.30
2023-05-21T01:17:30.401Z,0.50
2023-05-21T01:19:59.629Z,0.20
2023-05-21T01:22:29.629Z,0.40
2023-05-21T01:24:58.778Z,0.40
2023-05-21T01:27:26.705Z,0.30
2023-05-21T01:29:54.432Z,0.80
2023-05-21T01:32:27.148Z,0.40
2023-05-21T01:34:57.519Z,0.70
2023-05-21T01:37:28.829Z,0.20
2023-05-21T01:40:01.111Z,0.30
2023-05-21T01:42:30.029Z,0.45
2023-05-21T01:44:58.340Z,0.38
2023-05-21T01:47:27.629Z,0.60
2023-05-21T01:49:55.436Z,0.55
2023-05-21T01:52:23.149Z,0.30
2023-05-21T01:54:51.355Z,0.43
2023-05-21T01:57:20.467Z,0.45
2023-05-21T01:59:48.890Z,0.35
2023-05-21T02:02:16.719Z,0.57
2023-05-21T02:04:46.098Z,0.40
2023-05-21T02:07:14.453Z,0.40
2023-05-21T02:09:42.181Z,0.47
2023-05-21T02:12:09.923Z,0.55
2023-05-21T02:14:39.427Z,0.68
2023-05-21T02:17:08.079Z,0.38
2023-05-21T02:19:35.929Z,0.60
2023-05-21T02:22:03.648Z,0.77
2023-05-21T02:24:31.407Z,0.35
2023-05-21T02:26:59.582Z,0.75
2023-05-21T02:29:27.280Z,0.28
2023-05-21T02:31:56.845Z,0.55
2023-05-21T02:34:24.772Z,0.52
2023-05-21T02:36:53.148Z,0.80
2023-05-21T02:39:21.184Z,0.50
2023-05-21T02:41:49.208Z,0.70
2023-05-21T02:44:18.910Z,0.93
2023-05-21T02:46:46.629Z,0.50
2023-05-21T02:49:16.810Z,0.38
2023-05-21T02:51:47.013Z,0.20
2023-05-21T02:54:14.839Z,0.73
2023-05-21T02:56:42.567Z,0.30
2023-05-21T02:59:10.282Z,0.50
2023-05-21T03:01:38.597Z,0.30
2023-05-21T03:04:06.437Z,0.30
2023-05-21T03:06:36.898Z,0.60
2023-05-21T03:09:05.798Z,0.40
2023-05-21T03:11:33.512Z,0.65
2023-05-21T03:14:01.580Z,0.40
2023-05-21T03:16:29.708Z,0.57
2023-05-21T03:18:57.501Z,0.30
2023-05-21T03:21:25.218Z,0.20
2023-05-21T03:23:58.651Z,0.30
2023-05-21T03:26:27.397Z,0.65
2023-05-21T03:28:55.456Z,0.50
2023-05-21T03:31:26.504Z,0.38
2023-05-21T03:34:08.556Z,0.45
2023-05-21T03:36:36.521Z,0.80
2023-05-21T03:39:06.428Z,0.40
2023-05-21T03:41:35.351Z,0.70
2023-05-21T03:44:08.981Z,0.68
2023-05-21T03:46:47.417Z,0.40
2023-05-21T03:49:27.823Z,0.60
2023-05-21T03:51:57.617Z,0.30
2023-05-21T03:54:27.219Z,0.50
2023-05-21T03:56:59.923Z,0.85
2023-05-21T03:59:28.777Z,0.50
2023-05-21T04:01:56.912Z,0.30
2023-05-21T04:04:24.648Z,0.68
2023-05-21T04:06:54.264Z,0.32
2023-05-21T04:09:23.455Z,0.50
2023-05-21T04:11:54.481Z,0.80
2023-05-21T04:14:22.542Z,0.50
2023-05-21T04:16:52.439Z,0.68
2023-05-21T04:19:21.844Z,0.93
2023-05-21T04:21:50.176Z,0.80
2023-05-21T04:24:19.280Z,0.57
2023-05-21T04:26:51.955Z,0.70
2023-05-21T04:29:22.035Z,0.82
2023-05-21T04:31:51.603Z,1.23
2023-05-21T04:34:19.931Z,0.32
2023-05-21T04:36:47.703Z,0.38
2023-05-21T04:39:16.354Z,0.52
2023-05-21T04:41:44.300Z,0.60
2023-05-21T04:44:15.005Z,0.63
2023-05-21T04:46:46.873Z,0.55
2023-05-21T04:49:15.383Z,0.25
2023-05-21T04:51:43.127Z,0.30
2023-05-21T04:54:10.957Z,0.40
2023-05-21T04:56:38.659Z,0.30
2023-05-21T04:59:06.755Z,0.30
2023-05-21T05:01:35.317Z,0.50
2023-05-21T05:04:04.939Z,0.73
2023-05-21T05:06:32.758Z,0.60
2023-05-21T05:09:00.603Z,0.70
2023-05-21T05:11:28.318Z,0.68
2023-05-21T05:13:56.483Z,0.43
2023-05-21T05:16:25.692Z,0.60
2023-05-21T05:18:54.439Z,0.43
2023-05-21T05:21:24.576Z,0.50
2023-05-21T05:23:52.342Z,0.40
2023-05-21T05:26:23.852Z,0.40
2023-05-21T05:28:51.550Z,0.30
2023-05-21T05:31:19.768Z,0.55
2023-05-21T05:33:48.409Z,0.35
2023-05-21T05:36:16.502Z,0.43
2023-05-21T05:38:45.631Z,0.20
2023-05-21T05:41:13.349Z,0.70
2023-05-21T05:43:41.425Z,0.57
2023-05-21T05:46:10.193Z,0.50
2023-05-21T05:48:37.955Z,0.50
2023-05-21T05:51:06.164Z,1.05
2023-05-21T05:53:33.893Z,0.63
2023-05-21T05:56:03.098Z,0.77
2023-05-21T05:58:32.157Z,0.70
2023-05-21T06:01:09.741Z,0.68
2023-05-21T06:03:37.541Z,0.85
2023-05-21T06:06:25.662Z,0.47
2023-05-21T06:08:54.512Z,0.65
2023-05-21T06:11:23.705Z,0.70
2023-05-21T06:13:51.599Z,0.63
2023-05-21T06:16:19.672Z,0.73
2023-05-21T06:18:47.738Z,0.50
2023-05-21T06:21:15.884Z,0.88
2023-05-21T06:23:43.611Z,0.70
2023-05-21T06:26:11.419Z,0.63
2023-05-21T06:28:40.518Z,0.43
2023-05-21T06:31:10.321Z,0.68
2023-05-21T06:33:39.487Z,0.32
2023-05-21T06:36:08.015Z,1.60
2023-05-21T06:38:35.765Z,0.70
2023-05-21T06:41:03.927Z,0.82
2023-05-21T06:43:59.120Z,1.60
2023-05-21T06:46:52.702Z,0.50
2023-05-21T06:49:20.804Z,0.70
2023-05-21T06:51:48.833Z,1.05
2023-05-21T06:54:17.501Z,0.90
2023-05-21T06:56:45.389Z,0.95
2023-05-21T06:59:16.952Z,0.45
2023-05-21T07:01:44.853Z,0.50
2023-05-21T07:04:12.656Z,1.08
2023-05-21T07:06:42.451Z,1.65
2023-05-21T07:09:10.366Z,0.80
2023-05-21T07:11:38.937Z,0.57
2023-05-21T07:14:09.718Z,1.00
2023-05-21T07:16:40.334Z,0.68
2023-05-21T07:19:09.037Z,1.40
2023-05-21T07:21:37.007Z,0.60
2023-05-21T07:24:07.291Z,0.65
2023-05-21T07:26:38.645Z,0.73
2023-05-21T07:29:06.702Z,0.65
2023-05-21T07:31:34.491Z,1.10
2023-05-21T07:34:03.680Z,0.88
2023-05-21T07:36:33.535Z,0.60
2023-05-21T07:39:02.056Z,1.00
2023-05-21T07:41:30.272Z,0.82
2023-05-21T07:44:01.622Z,1.65
2023-05-21T07:46:29.428Z,0.73
2023-05-21T07:48:58.673Z,0.40
2023-05-21T07:51:28.268Z,0.70
2023-05-21T07:53:56.526Z,0.57
2023-05-21T07:56:32.413Z,0.90
2023-05-21T07:59:00.537Z,0.90
2023-05-21T08:01:29.594Z,0.52
2023-05-21T08:04:00.790Z,0.57
2023-05-21T08:06:30.140Z,1.90
2023-05-21T08:08:57.845Z,0.60
2023-05-21T08:11:27.004Z,0.68
2023-05-21T08:13:55.492Z,0.82
2023-05-21T08:16:24.377Z,0.70
2023-05-21T08:18:52.142Z,0.75
2023-05-21T08:21:19.982Z,1.67
2023-05-21T08:23:49.051Z,0.73
2023-05-21T08:26:17.262Z,0.80
2023-05-21T08:28:45.056Z,1.85
2023-05-21T08:31:13.413Z,0.70
2023-05-21T08:33:50.811Z,0.70
2023-05-21T08:36:21.320Z,0.40
2023-05-21T08:38:55.996Z,1.02
2023-05-21T08:41:29.677Z,0.82
2023-05-21T08:43:58.030Z,0.75
2023-05-21T08:46:30.094Z,0.80
2023-05-21T08:48:58.808Z,1.02
2023-05-21T08:51:27.908Z,0.98
2023-05-21T08:53:58.504Z,1.52
2023-05-21T08:56:26.886Z,1.38
2023-05-21T08:58:57.675Z,1.13
2023-05-21T09:01:28.831Z,1.70
2023-05-21T09:04:16.301Z,1.67
2023-05-21T09:06:48.511Z,1.83
2023-05-21T09:09:29.000Z,1.98
2023-05-21T09:11:56.726Z,2.28
2023-05-21T09:14:24.816Z,1.75
2023-05-21T09:17:14.537Z,2.20
2023-05-21T09:19:58.677Z,2.40
2023-05-21T09:22:26.444Z,2.40
2023-05-21T09:24:55.699Z,2.42
2023-05-21T09:27:23.563Z,2.20
2023-05-21T09:29:51.464Z,1.90
2023-05-21T09:32:19.195Z,2.40
2023-05-21T09:34:48.575Z,1.95
2023-05-21T09:37:27.173Z,2.38
2023-05-21T09:39:57.237Z,2.20
2023-05-21T09:42:25.579Z,2.78
2023-05-21T09:44:53.878Z,2.72
2023-05-21T09:47:22.518Z,2.50
2023-05-21T09:49:50.418Z,2.25
2023-05-21T09:52:24.410Z,2.20
2023-05-21T09:54:52.750Z,2.53
2023-05-21T09:57:25.804Z,2.75
2023-05-21T09:59:53.657Z,2.67
2023-05-21T10:02:22.094Z,3.10
2023-05-21T10:04:51.021Z,3.05
2023-05-21T10:07:19.777Z,2.63
2023-05-21T10:09:48.064Z,2.88
2023-05-21T10:12:16.656Z,2.60
2023-05-21T10:14:48.109Z,2.72
2023-05-21T10:17:15.831Z,2.40
2023-05-21T10:19:43.898Z,3.22
2023-05-21T10:22:11.739Z,2.80
2023-05-21T10:24:40.676Z,3.38
2023-05-21T10:27:08.504Z,2.90
2023-05-21T10:29:37.910Z,2.92
2023-05-21T10:32:07.742Z,2.90
2023-05-21T10:34:36.028Z,2.88
2023-05-21T10:37:04.189Z,2.83
2023-05-21T10:39:33.372Z,3.08
2023-05-21T10:42:05.299Z,3.15
2023-05-21T10:44:39.289Z,2.90
2023-05-21T10:47:17.531Z,2.95
2023-05-21T10:50:06.340Z,3.22
2023-05-21T10:52:38.751Z,3.47
2023-05-21T10:55:15.015Z,3.22
2023-05-21T10:57:54.942Z,3.38
2023-05-21T11:00:23.127Z,2.00
2023-05-21T11:02:53.032Z,1.55
2023-05-21T11:05:35.699Z,1.60
2023-05-21T11:08:03.541Z,2.30
2023-05-21T11:10:31.709Z,1.60
2023-05-21T11:13:09.110Z,3.65
2023-05-21T11:15:55.547Z,1.50
2023-05-21T11:18:24.694Z,1.42
2023-05-21T11:20:52.476Z,1.77
2023-05-21T11:23:21.813Z,1.23
2023-05-21T11:26:01.735Z,1.45
2023-05-21T11:28:33.872Z,1.13
2023-05-21T11:31:23.364Z,2.10
2023-05-21T11:34:09.449Z,1.85
2023-05-21T11:36:38.165Z,0.85
2023-05-21T11:39:13.000Z,3.30
2023-05-21T11:41:58.353Z,2.72
2023-05-21T11:44:46.966Z,1.60
2023-05-21T11:47:15.900Z,1.73
2023-05-21T11:49:45.941Z,2.25
2023-05-21T11:52:14.471Z,0.77
2023-05-21T11:54:46.134Z,1.88
2023-05-21T11:57:15.989Z,3.20
2023-05-21T11:59:43.694Z,1.40
2023-05-21T12:02:15.074Z,1.15
2023-05-21T12:04:42.878Z,4.40
2023-05-21T12:07:13.280Z,1.30
2023-05-21T12:09:41.333Z,0.90
2023-05-21T12:12:09.460Z,2.20
2023-05-21T12:14:37.460Z,3.45
2023-05-21T12:17:05.512Z,1.35
2023-05-21T12:19:33.799Z,1.67
2023-05-21T12:22:02.525Z,2.03
2023-05-21T12:24:31.864Z,3.33
2023-05-21T12:27:01.189Z,1.38
2023-05-21T12:29:29.125Z,2.78
2023-05-21T12:32:00.215Z,1.58
2023-05-21T12:34:40.757Z,1.55
2023-05-21T12:37:09.098Z,1.55
2023-05-21T12:39:41.758Z,3.55
2023-05-21T12:42:10.132Z,1.90
2023-05-21T12:44:39.599Z,2.67
2023-05-21T12:47:07.774Z,1.67
2023-05-21T12:49:36.367Z,2.00
2023-05-21T12:52:04.990Z,1.48
2023-05-21T12:54:34.281Z,1.70
2023-05-21T12:57:09.914Z,2.03
2023-05-21T12:59:45.456Z,1.10
2023-05-21T13:02:15.338Z,0.80
2023-05-21T13:04:43.279Z,1.45
2023-05-21T13:07:10.993Z,3.15
2023-05-21T13:09:38.700Z,1.52
2023-05-21T13:12:06.668Z,2.33
2023-05-21T13:14:35.738Z,2.55
2023-05-21T13:17:03.517Z,2.75
2023-05-21T13:19:31.308Z,3.08
2023-05-21T13:21:59.128Z,3.13
2023-05-21T13:24:26.800Z,1.38
2023-05-21T13:26:54.508Z,1.95
2023-05-21T13:29:22.252Z,1.67
2023-05-21T13:31:51.333Z,2.63
2023-05-21T13:34:19.049Z,4.43
2023-05-21T13:36:47.077Z,1.85
2023-05-21T13:39:14.790Z,2.33
2023-05-21T13:41:43.831Z,3.15
2023-05-21T13:44:11.531Z,2.10
2023-05-21T13:46:39.533Z,2.15
2023-05-21T13:49:08.673Z,2.45
2023-05-21T13:51:39.197Z,1.58
2023-05-21T13:54:07.341Z,3.45
2023-05-21T13:56:35.099Z,1.55
2023-05-21T13:59:02.841Z,3.30
2023-05-21T14:01:31.473Z,1.48
2023-05-21T14:04:04.147Z,2.47
2023-05-21T14:06:33.386Z,3.05
2023-05-21T14:09:01.228Z,2.47
2023-05-21T14:11:29.029Z,2.60
2023-05-21T14:13:57.046Z,1.77
2023-05-21T14:16:24.962Z,3.28
2023-05-21T14:18:52.894Z,2.25
2023-05-21T14:21:20.650Z,2.63
2023-05-21T14:23:49.970Z,1.50
2023-05-21T14:26:18.048Z,2.95
2023-05-21T14:28:46.307Z,2.78
2023-05-21T14:31:14.023Z,3.20
2023-05-21T14:33:41.723Z,3.05
2023-05-21T14:36:09.440Z,2.65
2023-05-21T14:38:37.135Z,1.42
2023-05-21T14:41:07.130Z,1.27
2023-05-21T14:43:34.921Z,2.13
2023-05-21T14:46:02.676Z,1.73
2023-05-21T14:48:30.410Z,1.65
2023-05-21T14:50:58.126Z,1.98
2023-05-21T14:53:25.809Z,1.42
2023-05-21T14:55:53.995Z,1.63
2023-05-21T14:58:23.071Z,1.63
2023-05-21T15:00:50.794Z,1.67
2023-05-21T15:03:18.569Z,2.72
2023-05-21T15:05:46.367Z,1.40
2023-05-21T15:08:14.112Z,2.90
2023-05-21T15:10:41.868Z,2.78
2023-05-21T15:13:10.973Z,1.02
2023-05-21T15:15:40.270Z,3.75
2023-05-21T15:18:08.289Z,4.80
2023-05-21T15:20:36.081Z,1.75
2023-05-21T15:23:16.276Z,3.55
2023-05-21T15:25:45.379Z,1.90
2023-05-21T15:28:13.211Z,2.05
2023-05-21T15:30:42.314Z,3.20
2023-05-21T15:33:10.032Z,2.03
2023-05-21T15:35:38.241Z,2.78
2023-05-21T15:38:06.283Z,1.00
2023-05-21T15:40:34.082Z,2.78
2023-05-21T15:43:01.791Z,2.80
2023-05-21T15:45:29.498Z,2.53
2023-05-21T15:47:58.627Z,2.70
2023-05-21T15:50:26.396Z,3.08
2023-05-21T15:52:54.116Z,2.78
2023-05-21T15:55:21.947Z,3.55
2023-05-21T15:57:49.724Z,2.55
2023-05-21T16:00:17.593Z,2.90
2023-05-21T16:02:45.382Z,1.73
2023-05-21T16:05:14.522Z,3.40
2023-05-21T16:07:42.311Z,3.28
2023-05-21T16:10:10.687Z,2.13
2023-05-21T16:12:38.834Z,3.17
2023-05-21T16:15:06.952Z,2.50
2023-05-21T16:17:34.699Z,2.65
2023-05-21T16:20:02.438Z,1.48
2023-05-21T16:22:31.542Z,1.60
2023-05-21T16:24:59.277Z,2.08
2023-05-21T16:27:26.977Z,2.95
2023-05-21T16:29:54.685Z,2.00
2023-05-21T16:32:22.733Z,2.10
2023-05-21T16:34:50.641Z,3.28
2023-05-21T16:37:18.344Z,1.83
2023-05-21T16:39:47.445Z,2.72
2023-05-21T16:42:15.169Z,2.40
2023-05-21T16:44:42.869Z,2.90
2023-05-21T16:47:10.598Z,1.25
2023-05-21T16:49:38.296Z,1.70
2023-05-21T16:52:06.300Z,1.65
2023-05-21T16:54:34.238Z,3.38
2023-05-21T16:57:03.371Z,1.48
2023-05-21T16:59:31.136Z,1.67
2023-05-21T17:01:58.996Z,2.63
2023-05-21T17:04:26.768Z,2.35
2023-05-21T17:06:54.461Z,1.50
2023-05-21T17:09:22.262Z,5.03
2023-05-21T17:11:49.939Z,1.67
2023-05-21T17:14:32.601Z,2.97
2023-05-21T17:17:01.375Z,1.58
2023-05-21T17:19:29.173Z,3.42
2023-05-21T17:21:57.110Z,1.50
2023-05-21T17:24:25.106Z,3.45
2023-05-21T17:26:53.781Z,4.10
2023-05-21T17:29:22.936Z,2.47
2023-05-21T17:31:50.872Z,4.07
2023-05-21T17:34:19.036Z,4.40
2023-05-21T17:36:46.786Z,2.92
2023-05-21T17:39:14.490Z,2.65
2023-05-21T17:41:42.513Z,1.73
2023-05-21T17:44:11.381Z,1.58
2023-05-21T17:46:40.581Z,2.80
2023-05-21T17:49:08.593Z,2.08
2023-05-21T17:51:36.416Z,1.65
2023-05-21T17:54:04.184Z,2.28
2023-05-21T17:56:34.269Z,2.17
2023-05-21T17:59:01.993Z,2.55
2023-05-21T18:01:29.806Z,2.85
2023-05-21T18:03:59.171Z,3.67
2023-05-21T18:06:27.812Z,2.15
2023-05-21T18:08:55.755Z,2.72
2023-05-21T18:11:24.186Z,2.75
2023-05-21T18:13:51.925Z,4.40
2023-05-21T18:16:19.681Z,1.23
2023-05-21T18:18:47.500Z,3.15
2023-05-21T18:21:16.620Z,2.08
2023-05-21T18:23:44.304Z,3.63
2023-05-21T18:26:12.023Z,2.45
2023-05-21T18:28:39.753Z,1.00
2023-05-21T18:31:07.436Z,2.40
2023-05-21T18:33:35.163Z,2.65
2023-05-21T18:36:02.963Z,3.53
2023-05-21T18:38:32.382Z,1.50
2023-05-21T18:41:01.623Z,3.45
2023-05-21T18:43:29.392Z,2.85
2023-05-21T18:45:57.175Z,2.90
2023-05-21T18:48:24.942Z,2.15
2023-05-21T18:50:52.829Z,2.88
2023-05-21T18:53:20.531Z,1.83
2023-05-21T18:55:49.639Z,0.98
2023-05-21T18:58:17.469Z,2.92
2023-05-21T19:00:45.186Z,2.25
2023-05-21T19:03:12.895Z,0.63
2023-05-21T19:05:40.747Z,2.45
2023-05-21T19:08:08.451Z,2.80
2023-05-21T19:13:06.557Z,1.95
2023-05-21T19:15:34.318Z,2.17
2023-05-21T19:18:03.529Z,1.80
2023-05-21T19:20:31.271Z,2.33
2023-05-21T19:22:58.979Z,1.23
2023-05-21T19:25:27.443Z,1.17
2023-05-21T19:27:55.165Z,1.80
2023-05-21T19:30:24.282Z,2.25
2023-05-21T19:32:52.067Z,1.73
2023-05-21T19:35:19.826Z,2.55
2023-05-21T19:37:47.541Z,2.72
2023-05-21T19:40:17.607Z,2.60
2023-05-21T19:42:45.583Z,2.40
2023-05-21T19:45:13.370Z,1.88
2023-05-21T19:47:42.557Z,1.30
2023-05-21T19:50:11.315Z,1.70
2023-05-21T19:52:39.256Z,2.50
2023-05-21T19:55:09.978Z,1.27
2023-05-21T19:57:38.004Z,2.13
2023-05-21T20:00:06.176Z,1.52
2023-05-21T20:02:40.641Z,1.88
2023-05-21T20:05:10.404Z,2.58
2023-05-21T20:07:38.186Z,1.15
2023-05-21T20:10:06.292Z,1.70
2023-05-21T20:12:34.036Z,1.30
2023-05-21T20:15:01.859Z,1.52
2023-05-21T20:17:30.510Z,1.75
2023-05-21T20:20:00.385Z,1.42
2023-05-21T20:22:29.537Z,1.95
2023-05-21T20:24:57.762Z,1.85
2023-05-21T20:27:26.141Z,1.50
2023-05-21T20:29:53.858Z,0.93
2023-05-21T20:32:21.538Z,1.80
2023-05-21T20:35:02.282Z,1.88
2023-05-21T20:37:33.895Z,1.23
2023-05-21T20:40:01.626Z,1.63
2023-05-21T20:42:34.802Z,1.90
2023-05-21T20:45:03.012Z,1.02
2023-05-21T20:47:30.908Z,1.40
2023-05-21T20:50:00.086Z,1.60
2023-05-21T20:52:27.816Z,1.83
2023-05-21T20:54:59.634Z,1.38
2023-05-21T20:57:28.246Z,1.30
2023-05-21T20:59:56.239Z,2.28
2023-05-21T21:02:24.269Z,1.17
2023-05-21T21:04:52.073Z,1.08
2023-05-21T21:07:20.195Z,1.67
2023-05-21T21:09:48.154Z,2.17
2023-05-21T21:14:47.865Z,1.92
2023-05-21T21:17:15.736Z,2.60
2023-05-21T21:19:43.428Z,1.23
2023-05-21T21:22:11.141Z,1.40
2023-05-21T21:24:38.899Z,2.58
2023-05-21T21:27:06.784Z,1.63
2023-05-21T21:29:35.902Z,2.15
2023-05-21T21:32:03.595Z,1.35
2023-05-21T21:34:31.296Z,0.57
2023-05-21T21:36:58.978Z,1.30
2023-05-21T21:39:26.873Z,1.75
2023-05-21T21:41:54.647Z,1.85
2023-05-21T21:44:22.428Z,2.08
2023-05-21T21:46:51.505Z,1.60
2023-05-21T21:49:19.186Z,1.30
2023-05-21T21:51:48.370Z,1.30
2023-05-21T21:54:16.126Z,1.55
2023-05-21T21:56:43.816Z,2.45
2023-05-21T21:59:11.521Z,1.40
2023-05-21T22:01:39.307Z,1.42
2023-05-21T22:04:08.577Z,1.08
2023-05-21T22:06:38.961Z,1.38
2023-05-21T22:09:07.378Z,1.55
2023-05-21T22:11:35.125Z,1.33
2023-05-21T22:14:02.816Z,0.50
2023-05-21T22:16:30.569Z,1.58
2023-05-21T22:18:59.030Z,1.20
2023-05-21T22:21:29.282Z,1.92
2023-05-21T22:23:57.216Z,1.15
2023-05-21T22:26:24.924Z,1.70
2023-05-21T22:28:52.782Z,0.82
2023-05-21T22:31:20.931Z,2.30
2023-05-21T22:33:48.698Z,1.40
2023-05-21T22:36:16.444Z,2.03
2023-05-21T22:38:45.511Z,2.03
2023-05-21T22:41:13.228Z,1.25
2023-05-21T22:43:40.952Z,2.08
2023-05-21T22:46:08.698Z,2.22
2023-05-21T22:48:37.351Z,2.45
2023-05-21T22:51:05.698Z,1.10
2023-05-21T22:53:34.290Z,1.15
2023-05-21T22:56:03.447Z,2.33
2023-05-21T22:58:31.128Z,3.28
2023-05-21T23:00:58.861Z,2.65
2023-05-21T23:03:26.764Z,0.90
2023-05-21T23:05:54.494Z,1.10
2023-05-21T23:08:22.207Z,3.13
2023-05-21T23:10:49.939Z,1.08
2023-05-21T23:13:19.076Z,2.53
2023-05-21T23:15:48.386Z,1.35
2023-05-21T23:18:16.530Z,1.58
2023-05-21T23:20:44.520Z,1.55
2023-05-21T23:23:12.286Z,2.50
2023-05-21T23:25:39.958Z,1.58
2023-05-21T23:28:07.696Z,1.67
2023-05-21T23:30:36.895Z,1.27
2023-05-21T23:33:04.752Z,1.85
2023-05-21T23:35:32.472Z,1.25
2023-05-21T23:38:00.192Z,1.50
2023-05-21T23:40:27.880Z,1.42
2023-05-21T23:42:55.620Z,5.10
2023-05-21T23:45:23.463Z,1.45
2023-05-21T23:47:52.995Z,1.52
2023-05-21T23:50:20.710Z,1.40
2023-05-21T23:52:48.449Z,1.35
2023-05-21T23:55:16.304Z,1.33
2023-05-21T23:57:44.048Z,0.85
